Time;durP1;ratioP1;P1;durP2;ratioP2;P2;SDS_P1;SDS_P2;PMS_P1;PMS_P2;Temp;Humidity;BMP_temperature;BMP_pressure;BME280_temperature;BME280_humidity;BME280_pressure;Samples;Min_cycle;Max_cycle;Signal;HPM_P1;HPM_P2
2022/07/10 00:00:32;;;;;;;2.60;1.50;;;14.00;99.90;;;;;;5095108;28;20027;-76
2022/07/10 00:02:58;;;;;;;4.38;1.85;;;14.00;99.90;;;;;;5094126;28;20024;-76
2022/07/10 00:05:24;;;;;;;2.38;1.50;;;14.00;99.90;;;;;;5095176;28;20024;-75
2022/07/10 00:07:50;;;;;;;5.63;1.92;;;14.00;99.90;;;;;;5094546;28;20043;-75
2022/07/10 00:10:18;;;;;;;6.70;2.10;;;13.90;99.90;;;;;;5094308;28;20043;-75
2022/07/10 00:12:44;;;;;;;3.55;2.20;;;13.90;99.90;;;;;;5094824;28;20070;-75
2022/07/10 00:15:10;;;;;;;7.00;1.85;;;13.90;99.90;;;;;;5094654;28;20028;-77
2022/07/10 00:17:38;;;;;;;6.15;2.03;;;13.90;99.90;;;;;;5094376;28;20025;-77
2022/07/10 00:20:05;;;;;;;3.13;1.80;;;13.90;99.90;;;;;;5094679;28;20024;-76
2022/07/10 00:22:30;;;;;;;7.43;1.70;;;13.90;99.90;;;;;;5095152;28;20024;-75
2022/07/10 00:24:56;;;;;;;4.70;1.60;;;13.90;99.90;;;;;;5093843;28;20139;-76
2022/07/10 00:27:23;;;;;;;7.07;1.67;;;13.90;99.90;;;;;;5096058;28;20020;-76
2022/07/10 00:29:48;;;;;;;3.00;1.77;;;13.80;99.90;;;;;;5094447;28;20039;-76
2022/07/10 00:32:14;;;;;;;3.65;1.40;;;13.80;99.90;;;;;;5094059;28;20016;-77
2022/07/10 00:34:40;;;;;;;2.50;1.65;;;13.80;99.90;;;;;;5094228;28;20028;-77
2022/07/10 00:37:05;;;;;;;4.65;2.03;;;13.80;99.90;;;;;;5094147;28;20065;-76
2022/07/10 00:39:31;;;;;;;6.55;2.78;;;13.80;99.90;;;;;;5093860;28;20031;-75
2022/07/10 00:42:13;;;;;;;8.20;2.17;;;13.70;99.90;;;;;;5092998;28;20376;-76
2022/07/10 00:44:39;;;;;;;4.55;1.70;;;13.70;99.90;;;;;;5093555;28;20503;-75
2022/07/10 00:47:06;;;;;;;3.17;1.70;;;13.70;99.90;;;;;;5093974;28;20035;-75
2022/07/10 00:49:32;;;;;;;7.18;1.77;;;13.70;99.90;;;;;;5094054;28;20508;-75
2022/07/10 00:52:00;;;;;;;3.15;1.55;;;13.60;99.90;;;;;;5093186;28;20069;-77
2022/07/10 00:54:26;;;;;;;5.55;1.83;;;13.70;99.90;;;;;;5079625;28;20035;-76
2022/07/10 00:56:52;;;;;;;5.28;1.90;;;13.70;99.90;;;;;;5094465;28;20016;-74
2022/07/10 00:59:18;;;;;;;3.47;2.00;;;13.70;99.90;;;;;;5097130;28;20490;-76
2022/07/10 01:01:44;;;;;;;5.07;1.92;;;13.60;99.90;;;;;;5097639;28;20027;-75
2022/07/10 01:04:10;;;;;;;5.32;2.00;;;13.60;99.90;;;;;;5093960;28;20021;-76
2022/07/10 01:06:36;;;;;;;7.70;1.73;;;13.70;99.90;;;;;;5093276;28;20107;-76
2022/07/10 01:09:02;;;;;;;5.43;2.58;;;13.60;99.90;;;;;;5093763;28;20028;-76
2022/07/10 01:11:33;;;;;;;2.35;1.60;;;13.60;99.90;;;;;;5094181;28;20036;-76
2022/07/10 01:13:58;;;;;;;3.08;1.77;;;13.50;99.90;;;;;;5093291;28;20364;-75
2022/07/10 01:16:24;;;;;;;3.22;1.58;;;13.50;99.90;;;;;;5093643;28;20028;-76
2022/07/10 01:18:49;;;;;;;3.88;1.75;;;13.50;99.90;;;;;;5093446;28;20013;-76
2022/07/10 01:21:28;;;;;;;3.10;1.52;;;13.50;99.90;;;;;;5092948;28;20039;-76
2022/07/10 01:23:54;;;;;;;4.38;1.60;;;13.40;99.90;;;;;;5079192;28;20020;-77
2022/07/10 01:26:23;;;;;;;1.48;1.38;;;13.30;99.90;;;;;;5094288;28;20062;-76
2022/07/10 01:28:53;;;;;;;4.22;1.80;;;13.30;99.90;;;;;;5093812;28;20028;-77
2022/07/10 01:31:28;;;;;;;3.35;1.77;;;13.30;99.90;;;;;;5094086;28;20506;-76
2022/07/10 01:33:55;;;;;;;3.67;1.95;;;13.30;99.90;;;;;;5092535;28;20124;-76
2022/07/10 01:36:21;;;;;;;2.83;1.50;;;13.20;99.90;;;;;;5093323;28;20039;-76
2022/07/10 01:38:47;;;;;;;4.03;1.88;;;13.20;99.90;;;;;;5094152;28;20097;-76
2022/07/10 01:41:13;;;;;;;3.85;1.45;;;13.10;99.90;;;;;;5093706;28;20468;-76
2022/07/10 01:43:42;;;;;;;3.72;1.85;;;13.20;99.90;;;;;;5093862;28;20028;-77
2022/07/10 01:46:10;;;;;;;7.18;1.60;;;13.20;99.90;;;;;;5092931;28;20035;-77
2022/07/10 01:48:37;;;;;;;2.80;1.50;;;13.20;99.90;;;;;;5092478;28;20070;-76
2022/07/10 01:51:03;;;;;;;6.45;1.88;;;13.20;99.90;;;;;;5092899;28;20375;-76
2022/07/10 01:53:29;;;;;;;1.60;1.45;;;13.20;99.90;;;;;;5084706;28;20102;-76
2022/07/10 01:55:55;;;;;;;5.63;1.85;;;13.20;99.90;;;;;;5086093;28;20134;-75
2022/07/10 01:58:21;;;;;;;3.08;1.45;;;13.10;99.90;;;;;;5093157;28;20024;-75
2022/07/10 02:00:47;;;;;;;13.65;2.50;;;13.20;99.90;;;;;;5092975;28;20356;-76
2022/07/10 02:05:57;;;;;;;4.18;2.05;;;13.10;99.90;;;;;;5092792;28;20035;-76
2022/07/10 02:08:24;;;;;;;3.80;1.75;;;13.10;99.90;;;;;;5092497;28;20048;-76
2022/07/10 02:10:49;;;;;;;5.13;2.00;;;13.10;99.90;;;;;;5091871;28;20392;-76
2022/07/10 02:13:17;;;;;;;2.38;2.10;;;13.10;99.90;;;;;;5092558;28;20028;-75
2022/07/10 02:15:43;;;;;;;4.22;2.00;;;13.00;99.90;;;;;;5092671;28;20059;-76
2022/07/10 02:18:09;;;;;;;4.00;1.75;;;13.00;99.90;;;;;;5092094;28;20062;-76
2022/07/10 02:20:36;;;;;;;4.43;2.15;;;13.00;99.90;;;;;;5093074;28;20143;-77
2022/07/10 02:23:01;;;;;;;5.43;1.73;;;13.00;99.90;;;;;;5092196;28;20024;-75
2022/07/10 02:25:27;;;;;;;2.30;2.10;;;13.00;99.90;;;;;;5093460;28;20046;-76
2022/07/10 02:27:52;;;;;;;2.63;1.70;;;13.00;99.90;;;;;;5092679;28;20020;-74
2022/07/10 02:30:18;;;;;;;4.88;2.25;;;13.00;99.90;;;;;;5092003;28;20074;-76
2022/07/10 02:32:44;;;;;;;3.53;2.28;;;13.00;99.90;;;;;;5093387;28;20032;-76
2022/07/10 02:35:09;;;;;;;5.93;2.10;;;13.10;99.90;;;;;;5092361;28;20471;-76
2022/07/10 02:37:35;;;;;;;4.85;2.42;;;13.10;99.90;;;;;;5091851;28;20491;-76
2022/07/10 02:40:00;;;;;;;2.88;1.70;;;13.20;99.90;;;;;;5091229;28;20105;-76
2022/07/10 02:42:26;;;;;;;5.30;1.75;;;13.20;99.90;;;;;;5092447;28;20135;-76
2022/07/10 02:44:51;;;;;;;4.47;1.88;;;13.30;99.90;;;;;;5089818;28;20028;-74
2022/07/10 02:47:17;;;;;;;4.65;2.33;;;13.30;99.90;;;;;;5071543;28;20125;-76
2022/07/10 02:49:43;;;;;;;8.30;2.25;;;13.40;99.90;;;;;;5075448;28;20107;-76
2022/07/10 02:52:09;;;;;;;3.28;1.80;;;13.50;99.90;;;;;;5082824;28;20062;-77
2022/07/10 02:54:34;;;;;;;7.05;2.00;;;13.60;99.90;;;;;;5081502;28;20103;-77
2022/07/10 02:57:00;;;;;;;3.17;1.70;;;13.60;99.90;;;;;;5088075;28;20036;-76
2022/07/10 02:59:26;;;;;;;5.93;2.10;;;13.60;99.90;;;;;;5091407;28;20024;-75
2022/07/10 03:01:52;;;;;;;4.10;1.83;;;13.60;99.90;;;;;;5091219;28;20031;-76
2022/07/10 03:04:17;;;;;;;3.50;1.83;;;13.60;99.90;;;;;;5078473;28;20053;-76
2022/07/10 03:06:43;;;;;;;5.70;1.60;;;13.70;99.90;;;;;;5094559;28;20123;-76
2022/07/10 03:09:09;;;;;;;3.75;2.05;;;13.80;99.90;;;;;;5095915;28;20032;-77
2022/07/10 03:11:34;;;;;;;3.38;2.00;;;13.80;99.90;;;;;;5095946;28;20107;-75
2022/07/10 03:14:00;;;;;;;9.02;1.85;;;13.90;99.90;;;;;;5094983;28;20021;-78
2022/07/10 03:16:26;;;;;;;6.90;1.70;;;13.90;99.90;;;;;;5096027;28;20060;-77
2022/07/10 03:18:51;;;;;;;5.40;2.17;;;13.90;99.90;;;;;;5095803;28;20069;-76
2022/07/10 03:21:17;;;;;;;4.03;1.70;;;14.00;99.90;;;;;;5081286;28;20051;-76
2022/07/10 03:23:42;;;;;;;3.42;1.52;;;13.90;99.90;;;;;;5096476;28;20032;-75
2022/07/10 03:26:08;;;;;;;5.82;1.73;;;14.00;99.90;;;;;;5096570;28;20095;-75
2022/07/10 03:28:34;;;;;;;4.47;1.75;;;14.10;99.90;;;;;;5096355;28;20463;-74
2022/07/10 03:30:59;;;;;;;2.88;1.55;;;14.00;99.90;;;;;;5093852;28;20038;-76
2022/07/10 03:33:25;;;;;;;3.53;1.85;;;14.00;99.90;;;;;;5083166;28;20051;-76
2022/07/10 03:35:51;;;;;;;2.67;1.50;;;14.00;99.90;;;;;;5095722;28;20020;-75
2022/07/10 03:38:16;;;;;;;4.25;2.05;;;14.00;99.90;;;;;;5081324;28;20027;-76
2022/07/10 03:40:42;;;;;;;3.28;1.67;;;14.10;99.90;;;;;;5094889;28;20078;-75
2022/07/10 03:43:07;;;;;;;5.38;2.38;;;14.10;99.90;;;;;;5095175;28;20031;-76
2022/07/10 03:45:33;;;;;;;3.20;1.25;;;14.10;99.90;;;;;;5095855;28;20141;-76
2022/07/10 03:47:59;;;;;;;7.90;1.98;;;14.20;99.90;;;;;;5094424;28;20073;-76
2022/07/10 03:50:24;;;;;;;6.43;1.65;;;14.10;99.90;;;;;;5095329;28;20032;-77
2022/07/10 03:52:50;;;;;;;4.28;1.80;;;14.20;99.90;;;;;;5094849;28;20103;-75
2022/07/10 03:55:15;;;;;;;2.75;1.70;;;14.20;99.90;;;;;;5080114;28;20032;-76
2022/07/10 03:57:53;;;;;;;3.20;1.60;;;14.20;99.90;;;;;;5094902;28;20032;-76
2022/07/10 04:00:22;;;;;;;2.47;1.58;;;14.30;99.90;;;;;;5095442;28;20070;-77
2022/07/10 04:02:53;;;;;;;4.00;1.80;;;14.30;99.90;;;;;;5094407;28;20031;-76
2022/07/10 04:05:19;;;;;;;;;;;14.30;99.90;;;;;;5095640;28;20387;-76
2022/07/10 04:07:44;;;;;;;2.17;1.65;;;14.30;99.90;;;;;;5094948;28;20052;-76
2022/07/10 04:10:10;;;;;;;2.67;1.50;;;14.40;99.90;;;;;;5093932;28;20081;-76
2022/07/10 04:12:36;;;;;;;4.55;1.63;;;14.40;99.90;;;;;;5094706;28;20036;-77
2022/07/10 04:15:01;;;;;;;5.75;1.65;;;14.40;99.90;;;;;;5095681;28;20066;-76
2022/07/10 04:17:27;;;;;;;2.75;1.75;;;14.40;99.90;;;;;;5094143;28;20023;-77
2022/07/10 04:19:53;;;;;;;3.67;1.80;;;14.40;99.90;;;;;;5094581;28;20060;-75
2022/07/10 04:22:18;;;;;;;5.88;2.03;;;14.40;99.90;;;;;;5094785;28;20024;-75
2022/07/10 04:24:44;;;;;;;5.18;1.88;;;14.50;99.90;;;;;;5094503;28;20118;-76
2022/07/10 04:27:10;;;;;;;5.93;1.92;;;14.50;99.90;;;;;;5094029;28;20541;-77
2022/07/10 04:29:35;;;;;;;3.25;1.75;;;14.60;99.90;;;;;;5093760;28;20036;-76
2022/07/10 04:32:01;;;;;;;8.13;1.65;;;14.70;99.90;;;;;;5094403;28;20028;-76
2022/07/10 04:34:26;;;;;;;5.15;1.70;;;14.70;99.90;;;;;;5094528;28;20021;-76
2022/07/10 04:36:52;;;;;;;3.05;2.10;;;14.70;99.90;;;;;;5093847;28;20456;-76
2022/07/10 04:39:18;;;;;;;3.63;1.77;;;14.70;99.90;;;;;;5094321;28;20012;-76
2022/07/10 04:41:43;;;;;;;7.55;1.83;;;14.80;99.90;;;;;;5094648;28;20027;-77
2022/07/10 04:44:09;;;;;;;3.90;1.65;;;14.80;99.90;;;;;;5093709;28;20028;-77
2022/07/10 04:46:34;;;;;;;4.72;1.70;;;14.90;99.90;;;;;;5094389;28;20027;-77
2022/07/10 04:49:00;;;;;;;5.38;1.58;;;14.90;99.90;;;;;;5094164;28;20028;-76
2022/07/10 04:51:25;;;;;;;9.90;1.60;;;15.00;99.90;;;;;;5093116;28;20070;-77
2022/07/10 04:53:51;;;;;;;4.85;2.08;;;15.10;99.90;;;;;;5087316;28;20033;-76
2022/07/10 04:56:16;;;;;;;3.88;1.50;;;15.10;99.90;;;;;;5087286;28;20020;-78
2022/07/10 04:58:42;;;;;;;7.25;1.83;;;15.10;99.90;;;;;;5093936;28;20012;-75
2022/07/10 05:01:07;;;;;;;6.22;2.05;;;15.10;99.90;;;;;;5094588;28;20032;-75
2022/07/10 05:03:33;;;;;;;5.57;1.58;;;15.20;99.90;;;;;;5094443;28;20065;-75
2022/07/10 05:05:58;;;;;;;9.18;2.33;;;15.20;99.90;;;;;;5093609;28;20020;-77
2022/07/10 05:08:24;;;;;;;4.82;2.45;;;15.30;99.90;;;;;;5093893;28;20044;-76
2022/07/10 05:10:50;;;;;;;4.57;1.50;;;15.30;99.90;;;;;;5093507;28;20028;-77
2022/07/10 05:13:15;;;;;;;7.97;1.88;;;15.20;99.90;;;;;;5094079;28;20119;-77
2022/07/10 05:15:41;;;;;;;9.13;1.92;;;15.30;99.90;;;;;;5093706;28;20020;-77
2022/07/10 05:18:06;;;;;;;2.28;1.15;;;15.30;99.90;;;;;;5093376;28;20106;-77
2022/07/10 05:20:33;;;;;;;4.60;1.55;;;15.40;99.90;;;;;;5092732;28;20157;-77
2022/07/10 05:22:59;;;;;;;7.60;1.55;;;15.40;99.90;;;;;;5093380;28;20020;-77
2022/07/10 05:25:26;;;;;;;9.15;2.65;;;15.40;99.90;;;;;;5093428;28;20384;-76
2022/07/10 05:27:51;;;;;;;2.20;1.23;;;15.40;99.90;;;;;;5093197;28;20020;-77
2022/07/10 05:30:17;;;;;;;8.77;1.83;;;15.40;99.90;;;;;;5093810;28;20047;-77
2022/07/10 05:32:46;;;;;;;6.82;2.30;;;15.50;99.90;;;;;;5093392;28;20089;-77
2022/07/10 05:35:14;;;;;;;8.55;1.67;;;15.50;99.90;;;;;;5093065;28;20055;-77
2022/07/10 05:37:39;;;;;;;6.18;1.88;;;15.60;99.90;;;;;;5093220;28;20016;-77
2022/07/10 05:40:05;;;;;;;6.13;1.60;;;15.70;99.90;;;;;;5092424;28;20024;-76
2022/07/10 05:42:31;;;;;;;3.10;1.30;;;15.80;99.90;;;;;;5093103;28;20032;-77
2022/07/10 05:44:56;;;;;;;5.55;1.67;;;15.80;99.90;;;;;;5093185;28;20414;-76
2022/07/10 05:47:22;;;;;;;8.20;1.20;;;15.90;99.90;;;;;;5092520;28;20024;-77
2022/07/10 05:49:47;;;;;;;5.15;1.25;;;16.10;99.90;;;;;;5092505;28;20030;-77
2022/07/10 05:52:13;;;;;;;3.90;1.50;;;16.20;99.90;;;;;;5093092;28;20016;-76
2022/07/10 05:54:39;;;;;;;4.82;1.55;;;16.30;99.90;;;;;;5078646;28;20021;-75
2022/07/10 05:57:05;;;;;;;8.15;1.58;;;16.50;99.90;;;;;;5091896;28;20058;-75
2022/07/10 05:59:34;;;;;;;7.40;2.13;;;16.50;99.90;;;;;;5093104;28;20387;-77
2022/07/10 06:02:00;;;;;;;6.88;1.75;;;16.60;99.90;;;;;;5091747;28;20482;-77
2022/07/10 06:04:26;;;;;;;6.75;1.23;;;16.70;99.90;;;;;;5092997;28;20032;-76
2022/07/10 06:06:51;;;;;;;3.45;1.30;;;16.80;99.90;;;;;;5093825;28;20444;-76
2022/07/10 06:09:17;;;;;;;4.15;1.65;;;16.80;99.90;;;;;;5085116;28;20059;-76
2022/07/10 06:11:45;;;;;;;5.80;1.80;;;16.80;99.90;;;;;;5085405;28;20076;-76
2022/07/10 06:14:11;;;;;;;2.70;1.25;;;16.80;99.90;;;;;;5074716;28;21989;-77
2022/07/10 06:16:37;;;;;;;14.13;1.52;;;16.90;99.90;;;;;;5071466;28;20051;-76
2022/07/10 06:19:02;;;;;;;3.50;1.52;;;16.90;99.90;;;;;;5074970;28;20098;-76
2022/07/10 06:21:28;;;;;;;5.50;1.25;;;17.00;99.90;;;;;;5072054;28;20120;-75
2022/07/10 06:23:56;;;;;;;9.05;1.52;;;17.00;99.90;;;;;;5073284;28;20048;-75
2022/07/10 06:26:22;;;;;;;5.10;1.55;;;17.10;99.90;;;;;;5071583;28;20086;-78
2022/07/10 06:28:48;;;;;;;4.82;1.30;;;17.10;99.90;;;;;;5070953;28;20048;-76
2022/07/10 06:31:13;;;;;;;3.17;1.08;;;17.20;99.90;;;;;;5069775;28;20384;-76
2022/07/10 06:33:39;;;;;;;10.90;1.85;;;17.30;99.90;;;;;;5074246;28;20028;-76
2022/07/10 06:36:05;;;;;;;5.38;2.00;;;17.30;99.90;;;;;;5070005;28;20423;-76
2022/07/10 06:38:31;;;;;;;7.53;1.45;;;17.40;99.90;;;;;;5084034;28;20028;-76
2022/07/10 06:40:57;;;;;;;3.88;1.23;;;17.40;99.90;;;;;;5076107;28;20088;-76
2022/07/10 06:43:23;;;;;;;4.63;1.13;;;17.40;99.90;;;;;;5070342;28;20021;-75
2022/07/10 06:45:48;;;;;;;8.02;1.45;;;17.40;99.90;;;;;;5070816;28;20510;-78
2022/07/10 06:48:14;;;;;;;8.13;1.45;;;17.50;99.90;;;;;;5071566;28;20090;-76
2022/07/10 06:50:40;;;;;;;5.75;1.40;;;17.50;99.90;;;;;;5070419;28;20480;-76
2022/07/10 06:53:06;;;;;;;6.35;1.10;;;17.50;99.90;;;;;;5077863;28;20063;-76
2022/07/10 06:55:35;;;;;;;3.35;1.20;;;17.40;99.90;;;;;;5076096;28;20033;-76
2022/07/10 06:58:01;;;;;;;4.22;1.27;;;17.40;99.90;;;;;;5069416;28;20103;-75
2022/07/10 07:00:27;;;;;;;5.32;1.73;;;17.30;99.90;;;;;;5070990;28;20021;-75
2022/07/10 07:02:55;;;;;;;5.70;1.73;;;17.30;99.90;;;;;;5070648;28;20024;-77
2022/07/10 07:05:21;;;;;;;3.72;1.23;;;17.30;99.90;;;;;;5070228;28;20074;-77
2022/07/10 07:07:46;;;;;;;3.08;1.20;;;17.20;99.90;;;;;;5070546;28;20045;-76
2022/07/10 07:10:12;;;;;;;8.13;1.60;;;17.20;99.90;;;;;;5070620;28;20063;-76
2022/07/10 07:12:38;;;;;;;5.50;1.45;;;17.30;99.90;;;;;;5070070;28;20502;-76
2022/07/10 07:15:04;;;;;;;2.30;1.45;;;17.40;99.90;;;;;;5070738;28;20426;-77
2022/07/10 07:17:33;;;;;;;8.10;1.50;;;17.50;99.90;;;;;;5073651;28;20070;-77
2022/07/10 07:25:29;;;;;;;5.93;1.40;;;17.90;99.90;;;;;;5073618;28;20098;-76
2022/07/10 07:27:55;;;;;;;2.97;1.10;;;18.10;99.90;;;;;;5070199;28;20013;-75
2022/07/10 07:30:21;;;;;;;3.47;1.67;;;18.20;99.90;;;;;;5070347;28;20111;-76
2022/07/10 07:32:47;;;;;;;9.35;2.47;;;18.30;99.90;;;;;;5069813;28;20111;-76
2022/07/10 07:35:15;;;;;;;7.88;1.35;;;18.30;99.90;;;;;;5070691;28;20020;-78
2022/07/10 07:37:49;;;;;;;6.03;1.42;;;18.30;99.90;;;;;;5070280;28;20456;-76
2022/07/10 07:40:20;;;;;;;3.13;1.58;;;18.20;99.90;;;;;;5069835;28;20480;-75
2022/07/10 07:42:46;;;;;;;4.78;1.30;;;18.20;99.90;;;;;;5070276;28;20379;-77
2022/07/10 07:45:12;;;;;;;4.20;1.48;;;18.40;99.90;;;;;;5070290;28;20036;-79
2022/07/10 07:47:50;;;;;;;5.10;1.02;;;18.30;99.90;;;;;;5069456;28;20088;-79
2022/07/10 07:50:18;;;;;;;6.05;1.33;;;18.30;99.90;;;;;;5070134;28;20520;-80
2022/07/10 07:52:45;;;;;;;5.75;1.30;;;18.40;99.90;;;;;;5073130;28;20020;-81
2022/07/10 07:55:12;;;;;;;3.78;1.48;;;18.30;99.90;;;;;;5073046;28;20559;-80
2022/07/10 07:57:38;;;;;;;3.00;1.30;;;18.30;99.90;;;;;;5073603;28;20518;-79
2022/07/10 08:00:07;;;;;;;5.50;1.40;;;18.20;99.90;;;;;;5074798;28;20441;-80
2022/07/10 08:02:32;;;;;;;10.52;1.73;;;18.20;99.90;;;;;;5074246;28;20024;-79
2022/07/10 08:04:58;;;;;;;2.90;1.23;;;18.20;99.90;;;;;;5074414;28;20036;-80
2022/07/10 08:07:36;;;;;;;4.03;1.45;;;18.20;99.90;;;;;;5075041;28;20040;-80
2022/07/10 08:10:03;;;;;;;4.32;1.80;;;18.20;99.90;;;;;;5074927;28;20032;-80
2022/07/10 08:12:29;;;;;;;3.67;1.73;;;18.20;99.90;;;;;;5075587;28;20025;-81
2022/07/10 08:14:55;;;;;;;6.47;1.40;;;18.30;99.90;;;;;;5073768;28;20035;-79
2022/07/10 08:17:21;;;;;;;5.78;1.38;;;18.30;99.90;;;;;;5076154;28;20028;-82
2022/07/10 08:19:47;;;;;;;2.55;1.25;;;18.30;99.90;;;;;;5077867;28;20067;-81
2022/07/10 08:22:12;;;;;;;5.03;1.23;;;18.40;99.90;;;;;;5076964;28;20024;-80
2022/07/10 08:24:38;;;;;;;6.25;1.42;;;18.50;99.90;;;;;;5079823;28;20028;-80
2022/07/10 08:27:07;;;;;;;2.08;1.15;;;18.60;99.90;;;;;;5077341;28;20483;-80
2022/07/10 08:29:33;;;;;;;2.67;1.25;;;18.80;99.90;;;;;;5075113;28;20029;-77
2022/07/10 08:31:59;;;;;;;2.53;1.52;;;18.90;99.90;;;;;;5074765;28;20016;-79
2022/07/10 08:34:24;;;;;;;3.80;1.33;;;19.00;99.90;;;;;;5075451;28;20430;-79
2022/07/10 08:36:50;;;;;;;3.42;1.48;;;19.10;99.90;;;;;;5075167;28;20020;-79
2022/07/10 08:39:17;;;;;;;5.72;1.30;;;19.20;99.90;;;;;;5075376;28;20074;-77
2022/07/10 08:41:45;;;;;;;5.72;1.92;;;19.30;99.90;;;;;;5077994;28;20392;-77
2022/07/10 08:44:10;;;;;;;3.90;1.38;;;19.40;99.90;;;;;;5077307;28;20076;-76
2022/07/10 08:46:37;;;;;;;2.63;1.00;;;19.40;99.90;;;;;;5076895;28;20056;-77
2022/07/10 08:49:08;;;;;;;5.85;1.33;;;19.50;99.90;;;;;;5078800;28;20080;-80
2022/07/10 08:51:41;;;;;;;3.20;1.63;;;19.60;99.90;;;;;;5081146;28;20138;-80
2022/07/10 08:54:08;;;;;;;2.55;1.38;;;19.60;99.90;;;;;;5080503;28;20021;-80
2022/07/10 08:56:35;;;;;;;5.95;1.65;;;19.60;99.90;;;;;;5080236;28;20036;-79
2022/07/10 08:59:07;;;;;;;3.13;1.20;;;19.70;99.90;;;;;;5087284;28;20039;-80
2022/07/10 09:01:33;;;;;;;8.13;1.52;;;19.60;99.90;;;;;;5078690;28;20024;-81
2022/07/10 09:03:59;;;;;;;2.97;1.45;;;19.80;99.90;;;;;;5076394;28;20479;-81
2022/07/10 09:06:27;;;;;;;4.90;1.52;;;19.80;99.90;;;;;;5074300;28;20529;-80
2022/07/10 09:09:06;;;;;;;5.90;1.85;;;19.60;99.90;;;;;;5074632;28;20021;-80
2022/07/10 09:11:33;;;;;;;3.90;1.60;;;19.70;99.90;;;;;;5079591;28;20029;-81
2022/07/10 09:14:07;;;;;;;2.85;1.23;;;19.70;99.90;;;;;;5079135;28;20046;-80
2022/07/10 09:16:35;;;;;;;4.80;1.52;;;19.70;99.90;;;;;;5077823;28;20379;-81
2022/07/10 09:19:25;;;;;;;2.00;1.10;;;19.70;99.90;;;;;;5080875;28;20058;-80
2022/07/10 09:22:02;;;;;;;3.80;1.48;;;19.80;99.90;;;;;;5099469;28;20058;-80
2022/07/10 09:24:39;;;;;;;3.42;1.20;;;19.80;99.90;;;;;;5103251;28;20093;-80
2022/07/10 09:27:05;;;;;;;4.32;1.67;;;20.00;99.90;;;;;;5109211;28;20118;-82
2022/07/10 09:29:31;;;;;;;3.10;1.02;;;20.00;99.90;;;;;;5100834;28;20123;-81
2022/07/10 09:32:01;;;;;;;3.00;1.50;;;20.10;99.90;;;;;;5092827;28;20085;-83
2022/07/10 09:34:37;;;;;;;4.30;1.27;;;19.80;99.90;;;;;;5087481;28;20065;-81
2022/07/10 09:37:19;;;;;;;2.97;1.00;;;20.40;99.90;;;;;;5088094;28;20068;-80
2022/07/10 09:39:56;;;;;;;1.83;1.23;;;20.50;99.90;;;;;;5088736;28;20033;-80
2022/07/10 09:42:26;;;;;;;2.70;1.00;;;20.60;99.90;;;;;;5089220;28;20035;-81
2022/07/10 09:44:52;;;;;;;5.65;1.45;;;20.70;99.90;;;;;;5079349;28;20103;-81
2022/07/10 09:47:24;;;;;;;1.70;1.08;;;20.80;99.90;;;;;;5079010;28;20040;-78
2022/07/10 09:49:49;;;;;;;3.25;1.20;;;20.80;99.90;;;;;;5085303;28;20550;-80
2022/07/10 09:52:18;;;;;;;4.15;1.20;;;20.70;99.90;;;;;;5080759;28;20104;-80
2022/07/10 09:54:46;;;;;;;5.18;1.20;;;20.70;99.90;;;;;;5071337;28;20033;-79
2022/07/10 09:57:15;;;;;;;1.13;0.90;;;20.80;99.90;;;;;;5080857;28;20380;-81
2022/07/10 09:59:41;;;;;;;4.53;1.17;;;20.80;99.90;;;;;;5063476;28;20486;-81
2022/07/10 10:02:09;;;;;;;3.47;0.90;;;20.80;99.90;;;;;;5074566;28;20278;-81
2022/07/10 10:04:37;;;;;;;2.22;1.13;;;20.80;99.90;;;;;;5084160;28;20036;-81
2022/07/10 10:07:07;;;;;;;4.75;1.48;;;21.00;99.90;;;;;;5074981;28;20052;-80
2022/07/10 10:09:37;;;;;;;3.65;1.25;;;21.00;99.90;;;;;;5072962;28;20115;-82
2022/07/10 10:12:23;;;;;;;;;;;21.00;99.90;;;;;;5077964;28;20081;-80
2022/07/10 10:14:49;;;;;;;1.15;0.85;;;20.70;99.90;;;;;;5057142;28;19909;-79
2022/07/10 10:17:17;;;;;;;1.27;1.17;;;20.70;99.90;;;;;;5080495;28;20025;-80
2022/07/10 10:22:30;;;;;;;5.07;1.27;;;20.60;99.90;;;;;;5081035;28;20043;-80
2022/07/10 10:24:57;;;;;;;2.65;1.20;;;20.70;99.90;;;;;;5084247;28;20111;-80
2022/07/10 10:27:24;;;;;;;1.70;0.88;;;20.80;99.90;;;;;;5074497;28;20044;-81
2022/07/10 10:29:51;;;;;;;3.42;1.33;;;21.00;99.90;;;;;;5080391;28;20051;-82
2022/07/10 10:32:17;;;;;;;2.67;1.25;;;21.10;99.90;;;;;;5078468;28;20029;-79
2022/07/10 10:34:57;;;;;;;3.35;1.30;;;21.30;99.90;;;;;;5080401;28;20036;-80
2022/07/10 10:37:40;;;;;;;2.13;1.02;;;21.80;99.90;;;;;;5073135;28;20110;-81
2022/07/10 10:40:09;;;;;;;3.10;1.23;;;21.30;99.90;;;;;;5079376;28;20037;-79
2022/07/10 10:42:55;;;;;;;6.03;1.40;;;21.40;99.90;;;;;;5076817;28;20123;-80
2022/07/10 10:45:29;;;;;;;2.70;1.10;;;21.40;99.90;;;;;;5074015;28;20024;-81
2022/07/10 10:48:01;;;;;;;3.42;1.60;;;21.50;99.90;;;;;;5071702;28;20151;-80
2022/07/10 10:50:42;;;;;;;1.73;1.10;;;21.50;99.70;;;;;;5081363;28;20040;-81
2022/07/10 10:53:26;;;;;;;1.83;1.10;;;21.60;99.90;;;;;;5071530;28;20028;-79
2022/07/10 10:56:04;;;;;;;2.90;1.20;;;21.80;99.70;;;;;;5073194;28;20039;-81
2022/07/10 10:58:37;;;;;;;1.55;1.00;;;21.70;98.80;;;;;;5076745;28;20031;-82
2022/07/10 11:01:24;;;;;;;2.17;1.60;;;21.70;99.10;;;;;;5083315;28;20432;-79
2022/07/10 11:04:04;;;;;;;1.42;0.90;;;21.80;99.10;;;;;;5076670;28;20071;-81
2022/07/10 11:06:52;;;;;;;4.20;1.05;;;22.00;98.80;;;;;;5074823;28;20546;-81
2022/07/10 11:09:22;;;;;;;4.75;1.15;;;22.10;98.70;;;;;;5073572;28;20522;-81
2022/07/10 11:12:08;;;;;;;2.80;1.10;;;22.20;98.50;;;;;;5080748;28;20148;-81
2022/07/10 11:14:39;;;;;;;4.45;1.70;;;22.20;98.80;;;;;;5080151;28;20057;-81
2022/07/10 11:17:05;;;;;;;2.22;1.08;;;22.20;98.70;;;;;;5093433;28;20545;-81
2022/07/10 11:19:32;;;;;;;4.13;1.20;;;22.30;98.50;;;;;;5080263;28;20115;-81
2022/07/10 11:22:18;;;;;;;1.67;1.10;;;22.10;98.70;;;;;;5072404;28;20472;-81
2022/07/10 11:25:15;;;;;;;3.53;1.00;;;22.10;98.70;;;;;;5072885;28;20036;-81
2022/07/10 11:28:09;;;;;;;2.95;1.10;;;22.00;98.90;;;;;;5077292;28;20023;-80
2022/07/10 11:30:53;;;;;;;1.63;0.95;;;22.00;99.20;;;;;;5082110;28;20510;-81
2022/07/10 11:33:21;;;;;;;1.83;1.05;;;22.00;99.20;;;;;;5078076;28;20599;-80
2022/07/10 11:35:48;;;;;;;3.97;1.25;;;22.10;99.70;;;;;;5086794;28;20507;-79
2022/07/10 11:38:23;;;;;;;2.70;0.90;;;22.20;99.30;;;;;;5082527;28;20032;-82
2022/07/10 11:40:49;;;;;;;4.45;1.45;;;22.20;98.70;;;;;;5079731;28;20023;-82
2022/07/10 11:43:17;;;;;;;1.85;0.82;;;22.30;99.10;;;;;;5083960;28;20039;-82
2022/07/10 11:45:44;;;;;;;2.38;1.08;;;22.40;99.70;;;;;;5080624;28;20025;-81
2022/07/10 11:48:21;;;;;;;3.55;1.45;;;22.50;98.30;;;;;;5081382;28;20035;-70
2022/07/10 11:50:47;;;;;;;3.30;1.33;;;22.50;98.20;;;;;;5077105;28;20365;-81
2022/07/10 11:53:13;;;;;;;3.45;1.73;;;22.40;98.50;;;;;;5074337;28;20102;-81
2022/07/10 11:55:40;;;;;;;2.25;1.13;;;22.40;97.80;;;;;;5083768;28;20028;-81
2022/07/10 11:58:32;;;;;;;1.42;0.93;;;22.30;98.40;;;;;;5079703;28;20028;-81
2022/07/10 12:00:59;;;;;;;2.80;1.35;;;22.50;97.70;;;;;;5083206;28;20039;-82
2022/07/10 12:03:25;;;;;;;2.03;1.05;;;22.60;97.50;;;;;;5085797;28;20028;-81
2022/07/10 12:05:51;;;;;;;5.75;1.40;;;22.50;98.20;;;;;;5095693;28;20645;-82
2022/07/10 12:08:17;;;;;;;2.95;1.48;;;22.70;98.30;;;;;;5093299;28;20055;-81
2022/07/10 12:10:43;;;;;;;2.65;1.20;;;22.70;97.60;;;;;;5094179;28;20097;-82
2022/07/10 12:13:11;;;;;;;1.77;0.98;;;22.60;97.20;;;;;;5076766;28;20476;-81
2022/07/10 12:15:39;;;;;;;2.70;1.13;;;22.60;97.10;;;;;;5079939;28;20437;-81
2022/07/10 12:18:06;;;;;;;2.60;1.30;;;22.60;97.10;;;;;;5085963;28;20759;-81
2022/07/10 12:20:32;;;;;;;1.77;1.00;;;22.80;97.60;;;;;;5095816;28;20024;-80
2022/07/10 12:22:59;;;;;;;2.97;1.08;;;22.80;97.30;;;;;;5093979;28;20065;-81
2022/07/10 12:25:25;;;;;;;3.35;1.10;;;23.00;97.30;;;;;;5094874;28;20085;-82
2022/07/10 12:27:58;;;;;;;2.35;1.00;;;23.10;96.80;;;;;;5100708;28;20020;-80
2022/07/10 12:30:43;;;;;;;1.67;0.80;;;23.10;96.30;;;;;;5091077;28;20075;-82
2022/07/10 12:33:19;;;;;;;1.05;0.85;;;23.10;96.40;;;;;;5084946;28;20024;-81
2022/07/10 12:35:48;;;;;;;2.88;1.10;;;23.00;95.20;;;;;;5095211;28;20107;-80
2022/07/10 12:38:27;;;;;;;2.92;1.33;;;23.00;95.30;;;;;;5091303;28;20107;-82
2022/07/10 12:41:08;;;;;;;1.70;1.05;;;23.10;96.70;;;;;;5089713;28;20021;-80
2022/07/10 12:43:34;;;;;;;1.52;1.02;;;23.30;95.10;;;;;;5076492;28;20052;-81
2022/07/10 12:46:11;;;;;;;5.57;0.73;;;23.30;95.20;;;;;;5074515;28;20055;-82
2022/07/10 12:48:37;;;;;;;3.28;0.95;;;23.50;95.10;;;;;;5077609;28;20031;-81
2022/07/10 12:51:20;;;;;;;0.70;0.70;;;23.60;95.10;;;;;;5080284;28;20044;-81
2022/07/10 12:53:46;;;;;;;3.67;0.82;;;23.60;95.10;;;;;;5077850;28;20028;-79
2022/07/10 12:56:29;;;;;;;3.40;1.05;;;23.70;94.10;;;;;;5088126;28;20028;-81
2022/07/10 12:58:56;;;;;;;2.45;0.88;;;23.60;94.60;;;;;;5077655;28;20089;-81
2022/07/10 13:01:21;;;;;;;1.52;0.98;;;23.50;94.70;;;;;;5084357;28;20020;-81
2022/07/10 13:03:47;;;;;;;4.63;1.30;;;23.40;94.80;;;;;;5076718;28;20025;-81